Flight Track Log - Related Links

Times and Time Zones

All times are in EDT time to prevent confusion due to time zone crossing. See the ACA7033 flight status page for this flight to view local times or setup timezone preferences in your user account.

Time Position Orientation Groundspeed Altitude Reporting Facility
EDT Latitude Longitude Course Direction KTS MPH feet Rate Location/Type
Sat 01:28:24 PM 42.2050 -83.3528 186° South 148 170 1,300  Level Cleveland Center
Sat 01:28:54 PM 42.1839 -83.3556 186° South 161 185 2,400 2,176 Climbing Cleveland Center
Sat 01:29:55 PM 42.1353 -83.3347 162° South 229 264 4,600 2,049 Climbing Cleveland Center
Sat 01:30:16 PM 42.1239 -83.3200 136° Southeast 222 255 5,200 3,148 Climbing Cleveland Center
Sat 01:30:56 PM 42.0842 -83.2656 135° Southeast 275 316 7,800 3,194 Climbing Cleveland Center
Sat 01:31:18 PM 42.0769 -83.2442 114° Southeast 263 303 8,500 1,929 Climbing Cleveland Center
Sat 01:32:20 PM 42.0975 -83.1256 77° East 309 356 10,500 1,805 Climbing Cleveland Center
Sat 01:33:21 PM 42.1225 -82.9944 76° East 360 414 12,200 2,488 Climbing Cleveland Center
Sat 01:34:23 PM 42.1539 -82.8300 76° East 378 435 15,600 3,000 Climbing Cleveland Center
Sat 01:35:25 PM 42.1811 -82.6853 76° East 396 456 18,400 2,371 Climbing Cleveland Center
Sat 01:36:27 PM 42.2089 -82.5361 76° East 408 470 20,500 1,887 Climbing Cleveland Center
Sat 01:37:29 PM 42.2214 -82.3717 84° East 444 511 22,300 2,129 Climbing Cleveland Center
Sat 01:38:31 PM 42.2086 -82.2044 96° East 451 519 24,900 1,984 Climbing Cleveland Center
Sat 01:39:33 PM 42.1728 -82.0300 105° East 470 541 26,400 1,610 Climbing Cleveland Center
Sat 01:40:34 PM 42.0950 -81.8475 120° Southeast 478 550 28,200 1,694 Climbing Cleveland Center
Sat 01:41:37 PM 42.0011 -81.7161 134° Southeast 482 555 29,900 1,355 Climbing Cleveland Center
Sat 01:42:38 PM 41.8975 -81.5972 139° Southeast 483 556 31,000 780 Climbing Cleveland Center
Sat 01:43:40 PM 41.7947 -81.4769 139° Southeast 483 556 31,500 629 Climbing Cleveland Center
Sat 01:44:42 PM 41.6908 -81.3578 139° Southeast 483 556 32,300 726 Climbing Cleveland Center
Sat 01:45:44 PM 41.5850 -81.2394 140° Southeast 486 559 33,000 339 Climbing Cleveland Center
Sat 01:46:46 PM 41.4836 -81.1178 138° Southeast 486 559 33,000  Level Cleveland Center
Sat 01:47:47 PM 41.3914 -80.9858 133° Southeast 482 555 33,000  Level Cleveland Center
Sat 01:48:49 PM 41.2992 -80.8606 134° Southeast 474 545 33,000  Level Cleveland Center
Sat 01:49:51 PM 41.2078 -80.7347 134° Southeast 472 543 33,000  Level Cleveland Center
Sat 01:50:53 PM 41.1103 -80.5997 134° Southeast 471 542 33,000  Level Cleveland Center
Sat 01:51:55 PM 41.0200 -80.4761 134° Southeast 471 542 33,000  Level Cleveland Center
Sat 01:52:57 PM 40.9283 -80.3500 134° Southeast 471 542 33,000 48 Level Cleveland Center
Sat 01:53:59 PM 40.8300 -80.2164 134° Southeast 472 543 33,100  Climbing Cleveland Center
Sat 01:55:01 PM 40.7397 -80.0919 134° Southeast 473 544 33,000 -48 Descending Cleveland Center
Sat 01:56:03 PM 40.6333 -79.9492 134° Southeast 472 543 33,000  Level Cleveland Center
Sat 01:57:05 PM 40.5417 -79.8250 134° Southeast 470 541 33,000  Level Cleveland Center
Sat 01:58:06 PM 40.4500 -79.7008 134° Southeast 470 541 33,000  Level Cleveland Center
Sat 01:59:08 PM 40.3594 -79.5789 134° Southeast 468 539 33,000  Level Cleveland Center
Sat 02:00:10 PM 40.2711 -79.4556 133° Southeast 466 536 33,000  Level Cleveland Center
Sat 02:01:12 PM 40.2211 -79.2811 111° Southeast 462 532 33,000  Level Cleveland Center
Sat 02:02:14 PM 40.2353 -79.1189 83° East 450 518 33,000  Level Cleveland Center
Sat 02:03:16 PM 40.2461 -78.9536 85° East 456 525 33,000  Level Cleveland Center
Sat 02:04:18 PM 40.2592 -78.7914 84° East 457 526 33,000 -435 Level Cleveland Center
Sat 02:05:20 PM 40.2706 -78.6261 85° East 458 527 32,100 -968 Descending Cleveland Center
Sat 02:06:22 PM 40.2839 -78.4308 85° East 457 526 31,000 -1,500 Descending Cleveland Center
Sat 02:07:24 PM 40.2950 -78.2708 85° East 450 518 29,000 -1,984 Descending Cleveland Center
Sat 02:08:26 PM 40.3058 -78.1125 85° East 444 511 26,900 -1,887 Descending Cleveland Center
Sat 02:09:28 PM 40.3144 -77.9575 86° East 435 501 25,100 -1,258 Descending Cleveland Center
Sat 02:10:30 PM 40.3122 -77.8058 91° East 425 489 24,300 -1,016 Descending Cleveland Center
Sat 02:11:32 PM 40.3117 -77.6253 90° East 419 482 23,000 -1,161 Descending Cleveland Center
Sat 02:12:34 PM 40.3086 -77.4794 92° East 407 468 21,900 -968 Descending Cleveland Center
Sat 02:13:36 PM 40.2875 -77.3172 100° East 452 520 21,000 -634 Descending Cleveland Center
Sat 02:14:37 PM 40.2642 -77.1525 100° East 444 511 20,600 -1,041 Descending New York Center
Sat 02:15:37 PM 40.2442 -76.9767 98° East 450 518 18,900 -1,400 Descending New York Center
Sat 02:16:37 PM 40.2244 -76.8333 100° East 450 518 17,800 -1,250 Descending New York Center
Sat 02:17:37 PM 40.2069 -76.6853 99° East 431 496 16,400 -1,550 Descending New York Center
Sat 02:18:37 PM 40.1839 -76.5228 100° East 410 472 14,700 -1,350 Descending New York Center
Sat 02:19:37 PM 40.1658 -76.3775 99° East 405 466 13,700 -1,000 Descending New York Center
Sat 02:20:37 PM 40.1494 -76.2375 99° East 398 458 12,700 -1,050 Descending New York Center
Sat 02:21:37 PM 40.1322 -76.1111 100° East 390 449 11,600 -1,150 Descending New York Center
Sat 02:22:37 PM 40.1136 -75.9714 100° East 365 420 10,400 -1,050 Descending New York Center
Sat 02:23:37 PM 40.0972 -75.8669 102° East 336 387 9,500 -1,150 Descending New York Center
Sat 02:24:37 PM 40.0814 -75.7464 100° East 308 354 8,100 -744 Descending New York Center
Sat 02:25:38 PM 40.0772 -75.6483 93° East 301 346 8,000 -450 Descending New York Center
Sat 02:26:37 PM 40.0797 -75.5347 88° East 291 335 7,200 -500 Descending New York Center
Sat 02:27:38 PM 40.0814 -75.4425 89° East 286 329 7,000 -99 Descending New York Center
Sat 02:28:38 PM 40.0817 -75.3314 90° East 281 323 7,000 -86 Level New York Center
Sat 02:29:58 PM 40.0500 -75.2167 110° East 222 255 6,800 -386 Descending Philadelphia TRACON
Sat 02:30:58 PM 40.0000 -75.1833 153° Southeast 225 259 6,100 -400 Descending Philadelphia TRACON
Sat 02:31:58 PM 40.0000 -75.1167 90° East 203 234 6,000 -50 Descending Philadelphia TRACON
Sat 02:32:58 PM 40.0000 -75.0333 90° East 203 234 6,000  Level Philadelphia TRACON
Sat 02:33:52 PM 40.0000 -74.9667 90° East 199 229 6,000 -261 Level Philadelphia TRACON
Sat 02:34:53 PM 40.0000 -74.9000 90° East 207 238 5,500 -744 Descending Philadelphia TRACON
Sat 02:35:53 PM 39.9500 -74.8833 166° South 190 219 4,500 -750 Descending Philadelphia TRACON
Sat 02:36:53 PM 39.9333 -74.9333 247° West 188 216 4,000 -500 Descending Philadelphia TRACON
Sat 02:37:53 PM 39.9167 -75.0000 252° West 190 219 3,500 -800 Descending Philadelphia TRACON
Sat 02:38:53 PM 39.9000 -75.0667 252° West 182 209 2,400 -1,000 Descending Philadelphia TRACON
Sat 02:39:53 PM 39.9000 -75.1333 270° West 163 188 1,500 -800 Descending Philadelphia TRACON
Sat 02:40:53 PM 39.8833 -75.1667 237° Southwest 134 154 800 -700 Descending Philadelphia TRACON
Sat 02:42:00 PM 39.8667 -75.2333 226° Southwest  Level FlightAware Approximate
Sat 02:49:00 PM 39.8722 -75.2409 226° Southwest  Level Estimated
Sat 02:50:00 PM 39.8722 -75.2409 226° Southwest  Level Estimated

Login

Don't have an account? Register now (free) for customized features, flight alerts, and more!